Airfield :
LOGIN :

Register | Disclaimer

   EN    FR    IT 

 










Legend :    VFR   Marginal VFR   IFR   Intensive IFR   Very Intensive IFR
Visi :
Ceiling :
>= 8 km
>= 3000ft
5 to 8 km
1000 to 3000 ft
1500m to 5 km
500 to 1000 ft
800 to 1500m
200 to 500 ft
< 800m
< 200 ft
Symbols :   Thunderstorms  Fog  Heavy snow  Heavy precipitations  Wind > 20 kt
SIGMETs :     Misc.  Thunderstorms  Icing  Turbulence  Mountain Waves  Volcanic Ashes







- Airport Elevation : 327 ft
- IATA code : BHX
- Download approach charts


EGBB - Birmingham

CURRENT METAR :
  • 221520Z 13005KT 9999 -RA FEW008 SCT042 10/08 Q1016

EXPIRED METARs :
  • 221450Z 15007KT 9999 -RA SCT015CB 10/08 Q1016
  • 221420Z 19005KT 9999 -RA SCT013CB BKN039 10/08 Q1017
  • 221350Z 18006KT 9999 -RA SCT012CB BKN032 11/09 Q1017
  • 221320Z 19005KT 160V220 9999 -RA SCT013 BKN028 11/09 Q1017 REDZ
  • 221250Z 24004KT 9999 RADZ FEW013 SCT020 BKN041CB 11/09 Q1018

TAF TAF EGBB
Valid from the 22 at 12:00 until the 23 at 12:00 UTC


221056Z 2212/2312 23010KT 9999 SCT030
BECMG 2212/2214 17007KT
TEMPO 2212/2302 8000 -RA
PROB30
TEMPO 2212/2224 RA BKN007
BECMG 2214/2217 08010KT
BECMG 2221/2224 02005KT
TEMPO 2306/2310 8000 -RA
PROB30
TEMPO 2306/2310 RA
BECMG 2309/2312 32010KT
ATIS : +44 121 780 0910
No reported NOTAMs for that airfield.
1 SIGMET reported for the London FIR (EGTT) :
 
Severe icing
EGTT SIGMET 06 VALID 221400/221800 EGRR
EGTT LONDON FIR SEV ICE FCST WI N5100 E00128 - N5040 E00128 - N5011 E00014 - N5155 W00407 - N5245 W00251 - N5102 E00139 - N5100 E00128 FL060/150 MOV E 25KT NC=



MET'MAP, your aeronautical weather chart ! - Copyright ORBIFLY December 2007 - Disclaimer

ORBIFLY MET'MAP TEAM :

Programming & Development : Alexandra Zaïnal
Concept & Development : Baudouin d'Aumeries
Co-Development & Prog : Marc-Olivier Méhu
Technical & hardware support : Manuel Goepfert

Contact : metmap@orbifly.com




SOURCES & CREDITS :

   NOAA